sensor_id;sensor_type;location;lat;lon;timestamp;P1;durP1;ratioP1;P2;durP2;ratioP2
18867;SDS011;9563;49.240;9.088;2023-03-01T00:00:13;16.70;;;8.77;;
18867;SDS011;9563;49.240;9.088;2023-03-01T00:02:40;20.20;;;8.90;;
18867;SDS011;9563;49.240;9.088;2023-03-01T00:05:07;20.60;;;9.17;;
18867;SDS011;9563;49.240;9.088;2023-03-01T00:07:34;17.60;;;9.27;;
18867;SDS011;9563;49.240;9.088;2023-03-01T00:10:01;16.13;;;8.47;;
18867;SDS011;9563;49.240;9.088;2023-03-01T00:12:28;19.80;;;8.80;;
18867;SDS011;9563;49.240;9.088;2023-03-01T00:14:56;19.43;;;9.27;;
18867;SDS011;9563;49.240;9.088;2023-03-01T00:17:23;18.20;;;9.00;;
18867;SDS011;9563;49.240;9.088;2023-03-01T00:19:50;17.33;;;8.97;;
18867;SDS011;9563;49.240;9.088;2023-03-01T00:22:17;20.47;;;9.93;;
18867;SDS011;9563;49.240;9.088;2023-03-01T00:24:43;20.20;;;9.67;;
18867;SDS011;9563;49.240;9.088;2023-03-01T00:27:10;22.30;;;9.53;;
18867;SDS011;9563;49.240;9.088;2023-03-01T00:29:37;18.00;;;9.20;;
18867;SDS011;9563;49.240;9.088;2023-03-01T00:32:05;22.13;;;9.97;;
18867;SDS011;9563;49.240;9.088;2023-03-01T00:34:32;18.37;;;9.27;;
18867;SDS011;9563;49.240;9.088;2023-03-01T00:36:59;25.33;;;11.40;;
18867;SDS011;9563;49.240;9.088;2023-03-01T00:39:30;19.70;;;10.57;;
18867;SDS011;9563;49.240;9.088;2023-03-01T00:41:58;19.00;;;10.17;;
18867;SDS011;9563;49.240;9.088;2023-03-01T00:44:25;24.93;;;10.97;;
18867;SDS011;9563;49.240;9.088;2023-03-01T00:46:53;21.57;;;10.50;;
18867;SDS011;9563;49.240;9.088;2023-03-01T00:49:21;19.03;;;9.67;;
18867;SDS011;9563;49.240;9.088;2023-03-01T00:51:49;21.57;;;11.20;;
18867;SDS011;9563;49.240;9.088;2023-03-01T00:54:16;20.97;;;10.63;;
18867;SDS011;9563;49.240;9.088;2023-03-01T00:56:43;20.20;;;10.40;;
18867;SDS011;9563;49.240;9.088;2023-03-01T00:59:10;20.53;;;10.33;;
18867;SDS011;9563;49.240;9.088;2023-03-01T01:01:36;21.70;;;10.07;;
18867;SDS011;9563;49.240;9.088;2023-03-01T01:04:05;23.03;;;10.10;;
18867;SDS011;9563;49.240;9.088;2023-03-01T01:06:35;20.30;;;10.13;;
18867;SDS011;9563;49.240;9.088;2023-03-01T01:09:03;25.17;;;11.73;;
18867;SDS011;9563;49.240;9.088;2023-03-01T01:11:31;23.17;;;11.43;;
18867;SDS011;9563;49.240;9.088;2023-03-01T01:13:59;22.57;;;10.40;;
18867;SDS011;9563;49.240;9.088;2023-03-01T01:16:27;25.10;;;11.67;;
18867;SDS011;9563;49.240;9.088;2023-03-01T01:18:54;21.67;;;11.10;;
18867;SDS011;9563;49.240;9.088;2023-03-01T01:21:22;23.10;;;11.17;;
18867;SDS011;9563;49.240;9.088;2023-03-01T01:23:51;22.93;;;11.83;;
18867;SDS011;9563;49.240;9.088;2023-03-01T01:26:19;24.57;;;11.07;;
18867;SDS011;9563;49.240;9.088;2023-03-01T01:28:47;21.60;;;10.90;;
18867;SDS011;9563;49.240;9.088;2023-03-01T01:31:14;23.63;;;11.73;;
18867;SDS011;9563;49.240;9.088;2023-03-01T01:33:41;23.30;;;10.93;;
18867;SDS011;9563;49.240;9.088;2023-03-01T01:36:09;27.67;;;10.93;;
18867;SDS011;9563;49.240;9.088;2023-03-01T01:38:37;21.27;;;11.30;;
18867;SDS011;9563;49.240;9.088;2023-03-01T01:41:05;26.27;;;12.27;;
18867;SDS011;9563;49.240;9.088;2023-03-01T01:43:33;22.97;;;12.00;;
18867;SDS011;9563;49.240;9.088;2023-03-01T01:46:02;21.77;;;11.90;;
18867;SDS011;9563;49.240;9.088;2023-03-01T01:48:32;25.30;;;11.27;;
18867;SDS011;9563;49.240;9.088;2023-03-01T01:51:06;21.17;;;10.73;;
18867;SDS011;9563;49.240;9.088;2023-03-01T01:53:37;21.70;;;10.70;;
18867;SDS011;9563;49.240;9.088;2023-03-01T01:56:08;22.13;;;10.80;;
18867;SDS011;9563;49.240;9.088;2023-03-01T01:58:37;26.97;;;11.23;;
18867;SDS011;9563;49.240;9.088;2023-03-01T02:01:06;25.37;;;11.53;;
18867;SDS011;9563;49.240;9.088;2023-03-01T02:03:34;22.10;;;10.87;;
18867;SDS011;9563;49.240;9.088;2023-03-01T02:06:07;22.80;;;11.77;;
18867;SDS011;9563;49.240;9.088;2023-03-01T02:08:40;23.53;;;11.93;;
18867;SDS011;9563;49.240;9.088;2023-03-01T02:11:10;22.33;;;11.50;;
18867;SDS011;9563;49.240;9.088;2023-03-01T02:13:39;22.70;;;11.77;;
18867;SDS011;9563;49.240;9.088;2023-03-01T02:16:08;22.33;;;11.00;;
18867;SDS011;9563;49.240;9.088;2023-03-01T02:18:37;21.33;;;10.87;;
18867;SDS011;9563;49.240;9.088;2023-03-01T02:21:08;22.53;;;11.07;;
18867;SDS011;9563;49.240;9.088;2023-03-01T02:23:46;21.80;;;11.50;;
18867;SDS011;9563;49.240;9.088;2023-03-01T02:26:17;24.43;;;11.63;;
18867;SDS011;9563;49.240;9.088;2023-03-01T02:28:48;24.77;;;11.13;;
18867;SDS011;9563;49.240;9.088;2023-03-01T02:31:16;23.80;;;11.27;;
18867;SDS011;9563;49.240;9.088;2023-03-01T02:34:02;25.57;;;12.10;;
18867;SDS011;9563;49.240;9.088;2023-03-01T02:36:31;22.83;;;10.57;;
18867;SDS011;9563;49.240;9.088;2023-03-01T02:39:03;22.50;;;11.03;;
18867;SDS011;9563;49.240;9.088;2023-03-01T02:41:39;24.27;;;10.93;;
18867;SDS011;9563;49.240;9.088;2023-03-01T02:44:11;22.70;;;10.53;;
18867;SDS011;9563;49.240;9.088;2023-03-01T02:46:41;22.00;;;11.57;;
18867;SDS011;9563;49.240;9.088;2023-03-01T02:49:16;23.70;;;11.20;;
18867;SDS011;9563;49.240;9.088;2023-03-01T02:51:54;22.83;;;11.03;;
18867;SDS011;9563;49.240;9.088;2023-03-01T02:54:31;21.73;;;10.83;;
18867;SDS011;9563;49.240;9.088;2023-03-01T02:57:04;26.17;;;12.53;;
18867;SDS011;9563;49.240;9.088;2023-03-01T02:59:34;23.27;;;12.43;;
18867;SDS011;9563;49.240;9.088;2023-03-01T03:02:04;25.07;;;12.23;;
18867;SDS011;9563;49.240;9.088;2023-03-01T03:04:31;24.67;;;11.67;;
18867;SDS011;9563;49.240;9.088;2023-03-01T03:06:57;23.00;;;12.10;;
18867;SDS011;9563;49.240;9.088;2023-03-01T03:09:24;25.07;;;11.37;;
18867;SDS011;9563;49.240;9.088;2023-03-01T03:11:51;24.20;;;11.73;;
18867;SDS011;9563;49.240;9.088;2023-03-01T03:14:18;20.67;;;10.87;;
18867;SDS011;9563;49.240;9.088;2023-03-01T03:16:47;27.67;;;11.83;;
18867;SDS011;9563;49.240;9.088;2023-03-01T03:19:15;23.57;;;11.47;;
18867;SDS011;9563;49.240;9.088;2023-03-01T03:21:43;26.03;;;11.90;;
18867;SDS011;9563;49.240;9.088;2023-03-01T03:24:10;26.63;;;11.87;;
18867;SDS011;9563;49.240;9.088;2023-03-01T03:26:36;21.17;;;10.93;;
18867;SDS011;9563;49.240;9.088;2023-03-01T03:29:03;24.93;;;12.23;;
18867;SDS011;9563;49.240;9.088;2023-03-01T03:31:30;27.90;;;12.23;;
18867;SDS011;9563;49.240;9.088;2023-03-01T03:33:58;25.73;;;11.70;;
18867;SDS011;9563;49.240;9.088;2023-03-01T03:36:25;27.23;;;12.30;;
18867;SDS011;9563;49.240;9.088;2023-03-01T03:38:52;23.77;;;11.70;;
18867;SDS011;9563;49.240;9.088;2023-03-01T03:41:19;26.93;;;12.53;;
18867;SDS011;9563;49.240;9.088;2023-03-01T03:43:45;20.50;;;11.40;;
18867;SDS011;9563;49.240;9.088;2023-03-01T03:46:13;25.73;;;12.50;;
18867;SDS011;9563;49.240;9.088;2023-03-01T03:48:42;23.63;;;11.87;;
18867;SDS011;9563;49.240;9.088;2023-03-01T03:51:11;26.53;;;12.67;;
18867;SDS011;9563;49.240;9.088;2023-03-01T03:53:40;22.20;;;11.03;;
18867;SDS011;9563;49.240;9.088;2023-03-01T03:56:07;25.13;;;12.57;;
18867;SDS011;9563;49.240;9.088;2023-03-01T03:58:35;22.70;;;11.87;;
18867;SDS011;9563;49.240;9.088;2023-03-01T04:01:02;24.47;;;12.20;;
18867;SDS011;9563;49.240;9.088;2023-03-01T04:03:30;23.13;;;11.47;;
18867;SDS011;9563;49.240;9.088;2023-03-01T04:05:58;28.67;;;12.90;;
18867;SDS011;9563;49.240;9.088;2023-03-01T04:08:27;25.97;;;12.27;;
18867;SDS011;9563;49.240;9.088;2023-03-01T04:10:56;27.83;;;12.53;;
18867;SDS011;9563;49.240;9.088;2023-03-01T04:13:25;26.40;;;11.97;;
18867;SDS011;9563;49.240;9.088;2023-03-01T04:15:52;25.03;;;12.50;;
18867;SDS011;9563;49.240;9.088;2023-03-01T04:18:20;26.17;;;12.87;;
18867;SDS011;9563;49.240;9.088;2023-03-01T04:20:49;26.63;;;12.07;;
18867;SDS011;9563;49.240;9.088;2023-03-01T04:23:20;26.33;;;12.40;;
18867;SDS011;9563;49.240;9.088;2023-03-01T04:25:49;26.33;;;10.93;;
18867;SDS011;9563;49.240;9.088;2023-03-01T04:28:19;24.30;;;11.27;;
18867;SDS011;9563;49.240;9.088;2023-03-01T04:30:46;25.37;;;11.93;;
18867;SDS011;9563;49.240;9.088;2023-03-01T04:33:13;24.10;;;11.47;;
18867;SDS011;9563;49.240;9.088;2023-03-01T04:35:39;28.23;;;13.30;;
18867;SDS011;9563;49.240;9.088;2023-03-01T04:38:06;26.73;;;12.73;;
18867;SDS011;9563;49.240;9.088;2023-03-01T04:40:33;24.23;;;11.47;;
18867;SDS011;9563;49.240;9.088;2023-03-01T04:43:02;27.57;;;12.13;;
18867;SDS011;9563;49.240;9.088;2023-03-01T04:45:29;24.97;;;11.97;;
18867;SDS011;9563;49.240;9.088;2023-03-01T04:47:57;27.97;;;12.67;;
18867;SDS011;9563;49.240;9.088;2023-03-01T04:50:24;25.73;;;12.97;;
18867;SDS011;9563;49.240;9.088;2023-03-01T04:52:50;28.33;;;12.73;;
18867;SDS011;9563;49.240;9.088;2023-03-01T04:55:18;26.97;;;11.70;;
18867;SDS011;9563;49.240;9.088;2023-03-01T04:57:45;28.90;;;13.57;;
18867;SDS011;9563;49.240;9.088;2023-03-01T05:00:14;26.90;;;12.13;;
18867;SDS011;9563;49.240;9.088;2023-03-01T05:02:47;25.33;;;12.93;;
18867;SDS011;9563;49.240;9.088;2023-03-01T05:05:18;27.03;;;12.47;;
18867;SDS011;9563;49.240;9.088;2023-03-01T05:07:51;29.43;;;12.80;;
18867;SDS011;9563;49.240;9.088;2023-03-01T05:10:21;27.27;;;13.07;;
18867;SDS011;9563;49.240;9.088;2023-03-01T05:12:49;28.30;;;13.07;;
18867;SDS011;9563;49.240;9.088;2023-03-01T05:15:18;28.07;;;13.03;;
18867;SDS011;9563;49.240;9.088;2023-03-01T05:17:46;28.37;;;13.17;;
18867;SDS011;9563;49.240;9.088;2023-03-01T05:20:14;30.17;;;12.50;;
18867;SDS011;9563;49.240;9.088;2023-03-01T05:22:41;28.03;;;12.97;;
18867;SDS011;9563;49.240;9.088;2023-03-01T05:25:07;28.03;;;13.03;;
18867;SDS011;9563;49.240;9.088;2023-03-01T05:27:34;28.90;;;13.10;;
18867;SDS011;9563;49.240;9.088;2023-03-01T05:30:02;30.00;;;13.47;;
18867;SDS011;9563;49.240;9.088;2023-03-01T05:32:39;28.03;;;13.90;;
18867;SDS011;9563;49.240;9.088;2023-03-01T05:35:08;26.00;;;12.60;;
18867;SDS011;9563;49.240;9.088;2023-03-01T05:37:38;29.93;;;14.03;;
18867;SDS011;9563;49.240;9.088;2023-03-01T05:40:05;24.50;;;12.57;;
18867;SDS011;9563;49.240;9.088;2023-03-01T05:42:40;27.33;;;12.87;;
18867;SDS011;9563;49.240;9.088;2023-03-01T05:45:08;31.50;;;13.27;;
18867;SDS011;9563;49.240;9.088;2023-03-01T05:47:37;34.27;;;13.83;;
18867;SDS011;9563;49.240;9.088;2023-03-01T05:50:07;24.30;;;12.53;;
18867;SDS011;9563;49.240;9.088;2023-03-01T05:52:35;26.73;;;12.50;;
18867;SDS011;9563;49.240;9.088;2023-03-01T05:55:01;29.07;;;13.00;;
18867;SDS011;9563;49.240;9.088;2023-03-01T05:57:29;28.90;;;12.97;;
18867;SDS011;9563;49.240;9.088;2023-03-01T05:59:55;26.67;;;12.10;;
18867;SDS011;9563;49.240;9.088;2023-03-01T06:02:22;25.47;;;13.07;;
18867;SDS011;9563;49.240;9.088;2023-03-01T06:04:49;32.17;;;13.97;;
18867;SDS011;9563;49.240;9.088;2023-03-01T06:07:17;26.33;;;13.17;;
18867;SDS011;9563;49.240;9.088;2023-03-01T06:09:44;30.50;;;13.40;;
18867;SDS011;9563;49.240;9.088;2023-03-01T06:12:11;33.83;;;13.93;;
18867;SDS011;9563;49.240;9.088;2023-03-01T06:14:37;31.60;;;13.27;;
18867;SDS011;9563;49.240;9.088;2023-03-01T06:17:04;29.00;;;13.63;;
18867;SDS011;9563;49.240;9.088;2023-03-01T06:19:31;31.80;;;13.43;;
18867;SDS011;9563;49.240;9.088;2023-03-01T06:21:58;27.30;;;12.50;;
18867;SDS011;9563;49.240;9.088;2023-03-01T06:24:26;31.13;;;14.63;;
18867;SDS011;9563;49.240;9.088;2023-03-01T06:26:53;32.33;;;14.57;;
18867;SDS011;9563;49.240;9.088;2023-03-01T06:29:20;29.87;;;13.63;;
18867;SDS011;9563;49.240;9.088;2023-03-01T06:31:48;39.33;;;15.67;;
18867;SDS011;9563;49.240;9.088;2023-03-01T06:34:15;32.27;;;14.83;;
18867;SDS011;9563;49.240;9.088;2023-03-01T06:36:42;31.07;;;14.27;;
18867;SDS011;9563;49.240;9.088;2023-03-01T06:39:08;27.83;;;13.47;;
18867;SDS011;9563;49.240;9.088;2023-03-01T06:41:37;28.40;;;13.33;;
18867;SDS011;9563;49.240;9.088;2023-03-01T06:44:04;27.63;;;13.07;;
18867;SDS011;9563;49.240;9.088;2023-03-01T06:46:30;31.13;;;14.23;;
18867;SDS011;9563;49.240;9.088;2023-03-01T06:48:58;26.33;;;13.07;;
18867;SDS011;9563;49.240;9.088;2023-03-01T06:51:25;30.33;;;13.43;;
18867;SDS011;9563;49.240;9.088;2023-03-01T06:53:52;29.93;;;13.30;;
18867;SDS011;9563;49.240;9.088;2023-03-01T06:56:19;33.03;;;14.23;;
18867;SDS011;9563;49.240;9.088;2023-03-01T06:58:47;30.53;;;14.10;;
18867;SDS011;9563;49.240;9.088;2023-03-01T07:01:14;31.57;;;14.13;;
18867;SDS011;9563;49.240;9.088;2023-03-01T07:03:40;30.00;;;13.63;;
18867;SDS011;9563;49.240;9.088;2023-03-01T07:06:09;27.30;;;12.87;;
18867;SDS011;9563;49.240;9.088;2023-03-01T07:08:36;32.87;;;14.87;;
18867;SDS011;9563;49.240;9.088;2023-03-01T07:11:02;32.37;;;15.63;;
18867;SDS011;9563;49.240;9.088;2023-03-01T07:13:30;32.83;;;13.97;;
18867;SDS011;9563;49.240;9.088;2023-03-01T07:15:58;30.30;;;14.33;;
18867;SDS011;9563;49.240;9.088;2023-03-01T07:18:25;25.47;;;13.57;;
18867;SDS011;9563;49.240;9.088;2023-03-01T07:20:52;27.13;;;13.93;;
18867;SDS011;9563;49.240;9.088;2023-03-01T07:23:19;29.77;;;14.60;;
18867;SDS011;9563;49.240;9.088;2023-03-01T07:25:50;31.30;;;14.23;;
18867;SDS011;9563;49.240;9.088;2023-03-01T07:28:17;30.33;;;14.23;;
18867;SDS011;9563;49.240;9.088;2023-03-01T07:30:44;33.03;;;14.07;;
18867;SDS011;9563;49.240;9.088;2023-03-01T07:33:12;32.20;;;14.57;;
18867;SDS011;9563;49.240;9.088;2023-03-01T07:35:39;30.70;;;15.10;;
18867;SDS011;9563;49.240;9.088;2023-03-01T07:38:06;31.47;;;13.43;;
18867;SDS011;9563;49.240;9.088;2023-03-01T07:40:33;26.40;;;12.93;;
18867;SDS011;9563;49.240;9.088;2023-03-01T07:43:00;27.90;;;13.13;;
18867;SDS011;9563;49.240;9.088;2023-03-01T07:45:27;28.23;;;13.70;;
18867;SDS011;9563;49.240;9.088;2023-03-01T07:47:55;24.47;;;12.43;;
18867;SDS011;9563;49.240;9.088;2023-03-01T07:50:23;27.43;;;13.30;;
18867;SDS011;9563;49.240;9.088;2023-03-01T07:52:50;29.43;;;14.23;;
18867;SDS011;9563;49.240;9.088;2023-03-01T07:55:17;28.97;;;13.93;;
18867;SDS011;9563;49.240;9.088;2023-03-01T07:57:44;28.23;;;13.60;;
18867;SDS011;9563;49.240;9.088;2023-03-01T08:00:11;27.87;;;13.03;;
18867;SDS011;9563;49.240;9.088;2023-03-01T08:02:39;28.60;;;14.30;;
18867;SDS011;9563;49.240;9.088;2023-03-01T08:05:07;28.50;;;13.50;;
18867;SDS011;9563;49.240;9.088;2023-03-01T08:07:35;26.07;;;14.30;;
18867;SDS011;9563;49.240;9.088;2023-03-01T08:10:02;31.27;;;13.60;;
18867;SDS011;9563;49.240;9.088;2023-03-01T08:12:29;26.13;;;13.87;;
18867;SDS011;9563;49.240;9.088;2023-03-01T08:14:56;31.00;;;13.87;;
18867;SDS011;9563;49.240;9.088;2023-03-01T08:17:23;27.77;;;14.27;;
18867;SDS011;9563;49.240;9.088;2023-03-01T08:19:50;34.17;;;15.10;;
18867;SDS011;9563;49.240;9.088;2023-03-01T08:22:17;27.10;;;12.87;;
18867;SDS011;9563;49.240;9.088;2023-03-01T08:24:46;27.30;;;13.27;;
18867;SDS011;9563;49.240;9.088;2023-03-01T08:27:14;29.70;;;13.43;;
18867;SDS011;9563;49.240;9.088;2023-03-01T08:29:41;29.13;;;14.97;;
18867;SDS011;9563;49.240;9.088;2023-03-01T08:32:08;26.47;;;13.83;;
18867;SDS011;9563;49.240;9.088;2023-03-01T08:34:34;26.80;;;13.70;;
18867;SDS011;9563;49.240;9.088;2023-03-01T08:37:02;27.77;;;13.87;;
18867;SDS011;9563;49.240;9.088;2023-03-01T08:39:29;31.93;;;14.17;;
18867;SDS011;9563;49.240;9.088;2023-03-01T08:41:57;28.43;;;14.03;;
18867;SDS011;9563;49.240;9.088;2023-03-01T08:44:24;25.47;;;13.23;;
18867;SDS011;9563;49.240;9.088;2023-03-01T08:46:50;26.87;;;14.60;;
18867;SDS011;9563;49.240;9.088;2023-03-01T08:49:18;23.73;;;13.73;;
18867;SDS011;9563;49.240;9.088;2023-03-01T08:51:46;29.73;;;14.90;;
18867;SDS011;9563;49.240;9.088;2023-03-01T08:54:14;26.37;;;13.60;;
18867;SDS011;9563;49.240;9.088;2023-03-01T08:56:43;28.57;;;14.40;;
18867;SDS011;9563;49.240;9.088;2023-03-01T08:59:12;26.07;;;14.13;;
18867;SDS011;9563;49.240;9.088;2023-03-01T09:01:43;26.43;;;14.27;;
18867;SDS011;9563;49.240;9.088;2023-03-01T09:04:10;23.80;;;14.37;;
18867;SDS011;9563;49.240;9.088;2023-03-01T09:06:38;24.43;;;13.73;;
18867;SDS011;9563;49.240;9.088;2023-03-01T09:09:05;27.10;;;14.57;;
18867;SDS011;9563;49.240;9.088;2023-03-01T09:11:34;27.57;;;14.00;;
18867;SDS011;9563;49.240;9.088;2023-03-01T09:14:04;27.87;;;14.47;;
18867;SDS011;9563;49.240;9.088;2023-03-01T09:16:33;26.53;;;13.97;;
18867;SDS011;9563;49.240;9.088;2023-03-01T09:19:01;28.87;;;14.03;;
18867;SDS011;9563;49.240;9.088;2023-03-01T09:21:28;30.30;;;15.00;;
18867;SDS011;9563;49.240;9.088;2023-03-01T09:23:55;27.83;;;14.67;;
18867;SDS011;9563;49.240;9.088;2023-03-01T09:26:23;28.10;;;14.87;;
18867;SDS011;9563;49.240;9.088;2023-03-01T09:28:50;29.00;;;15.17;;
18867;SDS011;9563;49.240;9.088;2023-03-01T09:31:19;29.93;;;14.47;;
18867;SDS011;9563;49.240;9.088;2023-03-01T09:33:49;28.33;;;14.73;;
18867;SDS011;9563;49.240;9.088;2023-03-01T09:36:18;27.07;;;14.27;;
18867;SDS011;9563;49.240;9.088;2023-03-01T09:38:46;28.73;;;15.33;;
18867;SDS011;9563;49.240;9.088;2023-03-01T09:41:18;27.80;;;14.20;;
18867;SDS011;9563;49.240;9.088;2023-03-01T09:44:05;25.53;;;14.10;;
18867;SDS011;9563;49.240;9.088;2023-03-01T09:46:40;26.53;;;14.33;;
18867;SDS011;9563;49.240;9.088;2023-03-01T09:49:12;29.63;;;14.03;;
18867;SDS011;9563;49.240;9.088;2023-03-01T09:51:43;28.53;;;14.67;;
18867;SDS011;9563;49.240;9.088;2023-03-01T09:54:19;30.47;;;15.97;;
18867;SDS011;9563;49.240;9.088;2023-03-01T09:56:50;30.00;;;14.70;;
18867;SDS011;9563;49.240;9.088;2023-03-01T09:59:30;27.07;;;14.23;;
18867;SDS011;9563;49.240;9.088;2023-03-01T10:02:11;23.53;;;14.33;;
18867;SDS011;9563;49.240;9.088;2023-03-01T10:04:54;25.90;;;14.60;;
18867;SDS011;9563;49.240;9.088;2023-03-01T10:07:32;29.90;;;14.40;;
18867;SDS011;9563;49.240;9.088;2023-03-01T10:10:05;25.13;;;14.83;;
18867;SDS011;9563;49.240;9.088;2023-03-01T10:12:33;28.17;;;14.20;;
18867;SDS011;9563;49.240;9.088;2023-03-01T10:15:05;29.70;;;15.35;;
18867;SDS011;9563;49.240;9.088;2023-03-01T10:17:38;28.75;;;15.25;;
18867;SDS011;9563;49.240;9.088;2023-03-01T10:20:16;24.50;;;14.32;;
18867;SDS011;9563;49.240;9.088;2023-03-01T10:22:45;29.33;;;15.40;;
18867;SDS011;9563;49.240;9.088;2023-03-01T10:25:15;28.33;;;14.35;;
18867;SDS011;9563;49.240;9.088;2023-03-01T10:27:51;29.35;;;14.90;;
18867;SDS011;9563;49.240;9.088;2023-03-01T10:30:20;26.37;;;14.60;;
18867;SDS011;9563;49.240;9.088;2023-03-01T10:32:49;29.87;;;15.10;;
18867;SDS011;9563;49.240;9.088;2023-03-01T10:35:20;24.00;;;14.57;;
18867;SDS011;9563;49.240;9.088;2023-03-01T10:37:58;29.00;;;15.15;;
18867;SDS011;9563;49.240;9.088;2023-03-01T10:40:29;26.98;;;14.77;;
18867;SDS011;9563;49.240;9.088;2023-03-01T10:42:57;27.70;;;14.10;;
18867;SDS011;9563;49.240;9.088;2023-03-01T10:45:32;23.52;;;14.32;;
18867;SDS011;9563;49.240;9.088;2023-03-01T10:48:05;25.80;;;13.95;;
18867;SDS011;9563;49.240;9.088;2023-03-01T10:50:38;23.75;;;14.27;;
18867;SDS011;9563;49.240;9.088;2023-03-01T10:53:08;26.92;;;14.88;;
18867;SDS011;9563;49.240;9.088;2023-03-01T10:55:56;25.50;;;14.45;;
18867;SDS011;9563;49.240;9.088;2023-03-01T10:58:25;25.98;;;14.15;;
18867;SDS011;9563;49.240;9.088;2023-03-01T11:00:53;29.00;;;15.25;;
18867;SDS011;9563;49.240;9.088;2023-03-01T11:03:22;27.92;;;14.98;;
18867;SDS011;9563;49.240;9.088;2023-03-01T11:05:52;26.00;;;14.73;;
18867;SDS011;9563;49.240;9.088;2023-03-01T11:08:35;24.92;;;14.10;;
18867;SDS011;9563;49.240;9.088;2023-03-01T11:11:13;25.70;;;14.35;;
18867;SDS011;9563;49.240;9.088;2023-03-01T11:13:49;26.73;;;14.63;;
18867;SDS011;9563;49.240;9.088;2023-03-01T11:16:22;24.83;;;15.30;;
18867;SDS011;9563;49.240;9.088;2023-03-01T11:18:59;26.38;;;14.40;;
18867;SDS011;9563;49.240;9.088;2023-03-01T11:21:32;23.85;;;14.27;;
18867;SDS011;9563;49.240;9.088;2023-03-01T11:24:01;24.17;;;13.70;;
18867;SDS011;9563;49.240;9.088;2023-03-01T11:26:30;26.90;;;15.73;;
18867;SDS011;9563;49.240;9.088;2023-03-01T11:29:03;25.88;;;14.43;;
18867;SDS011;9563;49.240;9.088;2023-03-01T11:31:33;24.67;;;15.25;;
18867;SDS011;9563;49.240;9.088;2023-03-01T11:34:03;26.45;;;15.50;;
18867;SDS011;9563;49.240;9.088;2023-03-01T11:36:40;24.45;;;14.07;;
18867;SDS011;9563;49.240;9.088;2023-03-01T11:39:16;25.85;;;14.48;;
18867;SDS011;9563;49.240;9.088;2023-03-01T11:41:48;26.05;;;14.45;;
18867;SDS011;9563;49.240;9.088;2023-03-01T11:44:18;28.65;;;14.32;;
18867;SDS011;9563;49.240;9.088;2023-03-01T11:46:51;24.13;;;14.00;;
18867;SDS011;9563;49.240;9.088;2023-03-01T11:52:31;25.65;;;14.23;;
18867;SDS011;9563;49.240;9.088;2023-03-01T11:55:17;27.40;;;15.60;;
18867;SDS011;9563;49.240;9.088;2023-03-01T12:00:55;27.15;;;15.35;;
18867;SDS011;9563;49.240;9.088;2023-03-01T12:03:33;23.65;;;13.75;;
18867;SDS011;9563;49.240;9.088;2023-03-01T12:06:26;27.88;;;14.43;;
18867;SDS011;9563;49.240;9.088;2023-03-01T12:09:04;22.20;;;13.82;;
18867;SDS011;9563;49.240;9.088;2023-03-01T12:11:56;24.65;;;13.75;;
18867;SDS011;9563;49.240;9.088;2023-03-01T12:14:44;23.00;;;14.13;;
18867;SDS011;9563;49.240;9.088;2023-03-01T12:17:32;25.38;;;14.27;;
18867;SDS011;9563;49.240;9.088;2023-03-01T12:20:21;23.73;;;13.98;;
18867;SDS011;9563;49.240;9.088;2023-03-01T12:23:03;22.92;;;13.63;;
18867;SDS011;9563;49.240;9.088;2023-03-01T12:25:50;23.10;;;13.77;;
18867;SDS011;9563;49.240;9.088;2023-03-01T12:28:27;26.40;;;14.18;;
18867;SDS011;9563;49.240;9.088;2023-03-01T12:31:30;26.80;;;15.52;;
18867;SDS011;9563;49.240;9.088;2023-03-01T12:34:19;25.15;;;14.15;;
18867;SDS011;9563;49.240;9.088;2023-03-01T12:37:03;24.40;;;13.93;;
18867;SDS011;9563;49.240;9.088;2023-03-01T12:39:46;26.52;;;14.38;;
18867;SDS011;9563;49.240;9.088;2023-03-01T12:42:28;23.67;;;13.80;;
18867;SDS011;9563;49.240;9.088;2023-03-01T12:45:16;27.63;;;14.60;;
18867;SDS011;9563;49.240;9.088;2023-03-01T12:48:08;27.80;;;14.32;;
18867;SDS011;9563;49.240;9.088;2023-03-01T12:50:46;27.45;;;14.35;;
18867;SDS011;9563;49.240;9.088;2023-03-01T12:53:19;27.70;;;14.70;;
18867;SDS011;9563;49.240;9.088;2023-03-01T12:55:49;23.55;;;13.35;;
18867;SDS011;9563;49.240;9.088;2023-03-01T12:58:23;25.27;;;14.50;;
18867;SDS011;9563;49.240;9.088;2023-03-01T13:00:59;24.58;;;13.93;;
18867;SDS011;9563;49.240;9.088;2023-03-01T13:03:40;26.13;;;14.95;;
18867;SDS011;9563;49.240;9.088;2023-03-01T13:06:32;27.60;;;14.77;;
18867;SDS011;9563;49.240;9.088;2023-03-01T13:09:07;26.02;;;13.82;;
18867;SDS011;9563;49.240;9.088;2023-03-01T13:11:41;25.90;;;13.85;;
18867;SDS011;9563;49.240;9.088;2023-03-01T13:17:02;25.10;;;13.82;;
18867;SDS011;9563;49.240;9.088;2023-03-01T13:19:29;22.58;;;14.05;;
18867;SDS011;9563;49.240;9.088;2023-03-01T13:21:57;26.83;;;14.27;;
18867;SDS011;9563;49.240;9.088;2023-03-01T13:24:26;25.67;;;14.13;;
18867;SDS011;9563;49.240;9.088;2023-03-01T13:29:56;39.00;;;14.60;;
18867;SDS011;9563;49.240;9.088;2023-03-01T13:32:28;27.98;;;13.05;;
18867;SDS011;9563;49.240;9.088;2023-03-01T13:34:58;24.02;;;13.60;;
18867;SDS011;9563;49.240;9.088;2023-03-01T13:37:26;24.02;;;13.02;;
18867;SDS011;9563;49.240;9.088;2023-03-01T13:39:59;25.92;;;13.95;;
18867;SDS011;9563;49.240;9.088;2023-03-01T13:42:40;22.42;;;13.32;;
18867;SDS011;9563;49.240;9.088;2023-03-01T13:45:17;32.83;;;14.52;;
18867;SDS011;9563;49.240;9.088;2023-03-01T13:47:48;24.23;;;13.45;;
18867;SDS011;9563;49.240;9.088;2023-03-01T13:50:20;23.90;;;14.05;;
18867;SDS011;9563;49.240;9.088;2023-03-01T13:52:50;25.00;;;13.07;;
18867;SDS011;9563;49.240;9.088;2023-03-01T13:55:23;22.85;;;12.85;;
18867;SDS011;9563;49.240;9.088;2023-03-01T13:57:56;26.45;;;13.02;;
18867;SDS011;9563;49.240;9.088;2023-03-01T14:00:36;23.13;;;13.25;;
18867;SDS011;9563;49.240;9.088;2023-03-01T14:03:08;24.70;;;13.68;;
18867;SDS011;9563;49.240;9.088;2023-03-01T14:05:37;23.25;;;13.65;;
18867;SDS011;9563;49.240;9.088;2023-03-01T14:08:05;27.10;;;14.35;;
18867;SDS011;9563;49.240;9.088;2023-03-01T14:10:48;24.92;;;12.93;;
18867;SDS011;9563;49.240;9.088;2023-03-01T14:13:24;28.17;;;13.27;;
18867;SDS011;9563;49.240;9.088;2023-03-01T14:18:59;23.30;;;12.93;;
18867;SDS011;9563;49.240;9.088;2023-03-01T14:21:41;23.37;;;13.10;;
18867;SDS011;9563;49.240;9.088;2023-03-01T14:24:14;26.33;;;13.20;;
18867;SDS011;9563;49.240;9.088;2023-03-01T14:26:43;23.10;;;13.63;;
18867;SDS011;9563;49.240;9.088;2023-03-01T14:29:23;22.90;;;12.87;;
18867;SDS011;9563;49.240;9.088;2023-03-01T14:31:52;24.00;;;13.40;;
18867;SDS011;9563;49.240;9.088;2023-03-01T14:34:19;29.00;;;13.27;;
18867;SDS011;9563;49.240;9.088;2023-03-01T14:36:47;22.00;;;12.83;;
18867;SDS011;9563;49.240;9.088;2023-03-01T14:39:18;23.93;;;13.17;;
18867;SDS011;9563;49.240;9.088;2023-03-01T14:41:50;26.20;;;12.87;;
18867;SDS011;9563;49.240;9.088;2023-03-01T14:44:19;26.53;;;14.50;;
18867;SDS011;9563;49.240;9.088;2023-03-01T14:46:52;28.67;;;13.63;;
18867;SDS011;9563;49.240;9.088;2023-03-01T14:49:22;26.03;;;13.80;;
18867;SDS011;9563;49.240;9.088;2023-03-01T14:51:52;25.40;;;13.40;;
18867;SDS011;9563;49.240;9.088;2023-03-01T14:54:23;27.90;;;13.57;;
18867;SDS011;9563;49.240;9.088;2023-03-01T14:56:53;25.33;;;14.33;;
18867;SDS011;9563;49.240;9.088;2023-03-01T14:59:24;25.73;;;13.57;;
18867;SDS011;9563;49.240;9.088;2023-03-01T15:01:53;27.50;;;13.77;;
18867;SDS011;9563;49.240;9.088;2023-03-01T15:04:22;23.90;;;14.00;;
18867;SDS011;9563;49.240;9.088;2023-03-01T15:06:51;25.97;;;13.70;;
18867;SDS011;9563;49.240;9.088;2023-03-01T15:09:18;23.80;;;13.53;;